sensor_id;sensor_type;location;lat;lon;timestamp;P1;durP1;ratioP1;P2;durP2;ratioP2
56321;SDS011;42227;6.376;-10.782;2024-01-06T00:02:14;357.55;;;250.57;;
56321;SDS011;42227;6.376;-10.782;2024-01-06T00:04:43;359.60;;;250.00;;
56321;SDS011;42227;6.376;-10.782;2024-01-06T00:07:11;365.13;;;262.30;;
56321;SDS011;42227;6.376;-10.782;2024-01-06T00:09:39;368.70;;;249.15;;
56321;SDS011;42227;6.376;-10.782;2024-01-06T00:12:08;383.73;;;264.60;;
56321;SDS011;42227;6.376;-10.782;2024-01-06T00:14:36;368.98;;;262.27;;
56321;SDS011;42227;6.376;-10.782;2024-01-06T00:17:05;418.45;;;269.20;;
56321;SDS011;42227;6.376;-10.782;2024-01-06T00:19:33;356.10;;;267.55;;
56321;SDS011;42227;6.376;-10.782;2024-01-06T00:22:02;350.25;;;254.55;;
56321;SDS011;42227;6.376;-10.782;2024-01-06T00:24:30;374.40;;;265.95;;
56321;SDS011;42227;6.376;-10.782;2024-01-06T00:26:59;386.73;;;273.40;;
56321;SDS011;42227;6.376;-10.782;2024-01-06T00:29:27;412.13;;;290.15;;
56321;SDS011;42227;6.376;-10.782;2024-01-06T00:31:55;466.00;;;327.60;;
56321;SDS011;42227;6.376;-10.782;2024-01-06T00:34:24;455.73;;;325.48;;
56321;SDS011;42227;6.376;-10.782;2024-01-06T00:36:52;456.83;;;324.85;;
56321;SDS011;42227;6.376;-10.782;2024-01-06T00:39:21;468.77;;;316.42;;
56321;SDS011;42227;6.376;-10.782;2024-01-06T00:41:49;431.48;;;301.20;;
56321;SDS011;42227;6.376;-10.782;2024-01-06T00:44:18;435.20;;;295.33;;
56321;SDS011;42227;6.376;-10.782;2024-01-06T00:46:46;419.90;;;299.42;;
56321;SDS011;42227;6.376;-10.782;2024-01-06T00:49:14;410.90;;;280.38;;
56321;SDS011;42227;6.376;-10.782;2024-01-06T00:51:43;415.65;;;274.63;;
56321;SDS011;42227;6.376;-10.782;2024-01-06T00:54:11;388.35;;;255.25;;
56321;SDS011;42227;6.376;-10.782;2024-01-06T00:56:40;380.02;;;264.88;;
56321;SDS011;42227;6.376;-10.782;2024-01-06T00:59:08;353.15;;;240.43;;
56321;SDS011;42227;6.376;-10.782;2024-01-06T01:01:39;340.23;;;240.00;;
56321;SDS011;42227;6.376;-10.782;2024-01-06T01:04:08;369.60;;;238.15;;
56321;SDS011;42227;6.376;-10.782;2024-01-06T01:06:36;316.73;;;216.18;;
56321;SDS011;42227;6.376;-10.782;2024-01-06T01:09:05;326.15;;;220.48;;
56321;SDS011;42227;6.376;-10.782;2024-01-06T01:11:33;323.60;;;224.40;;
56321;SDS011;42227;6.376;-10.782;2024-01-06T01:14:02;298.95;;;210.88;;
56321;SDS011;42227;6.376;-10.782;2024-01-06T01:16:30;268.35;;;191.38;;
56321;SDS011;42227;6.376;-10.782;2024-01-06T01:18:58;270.02;;;186.75;;
56321;SDS011;42227;6.376;-10.782;2024-01-06T01:21:27;265.00;;;165.38;;
56321;SDS011;42227;6.376;-10.782;2024-01-06T01:23:56;252.25;;;161.65;;
56321;SDS011;42227;6.376;-10.782;2024-01-06T01:26:24;231.35;;;160.40;;
56321;SDS011;42227;6.376;-10.782;2024-01-06T01:28:52;226.80;;;152.07;;
56321;SDS011;42227;6.376;-10.782;2024-01-06T01:31:22;213.30;;;147.00;;
56321;SDS011;42227;6.376;-10.782;2024-01-06T01:33:50;204.95;;;141.85;;
56321;SDS011;42227;6.376;-10.782;2024-01-06T01:36:21;205.07;;;142.00;;
56321;SDS011;42227;6.376;-10.782;2024-01-06T01:38:49;178.55;;;129.90;;
56321;SDS011;42227;6.376;-10.782;2024-01-06T01:41:18;201.38;;;138.18;;
56321;SDS011;42227;6.376;-10.782;2024-01-06T01:43:46;224.45;;;138.05;;
56321;SDS011;42227;6.376;-10.782;2024-01-06T01:46:14;200.90;;;128.10;;
56321;SDS011;42227;6.376;-10.782;2024-01-06T01:48:43;195.98;;;122.13;;
56321;SDS011;42227;6.376;-10.782;2024-01-06T01:51:11;187.75;;;108.45;;
56321;SDS011;42227;6.376;-10.782;2024-01-06T01:53:40;174.73;;;104.43;;
56321;SDS011;42227;6.376;-10.782;2024-01-06T01:56:09;135.57;;;92.68;;
56321;SDS011;42227;6.376;-10.782;2024-01-06T01:58:39;149.57;;;92.97;;
56321;SDS011;42227;6.376;-10.782;2024-01-06T02:01:08;137.18;;;94.47;;
56321;SDS011;42227;6.376;-10.782;2024-01-06T02:03:37;139.10;;;91.80;;
56321;SDS011;42227;6.376;-10.782;2024-01-06T02:06:08;134.03;;;94.10;;
56321;SDS011;42227;6.376;-10.782;2024-01-06T02:08:37;151.93;;;100.05;;
56321;SDS011;42227;6.376;-10.782;2024-01-06T02:11:06;149.40;;;98.43;;
56321;SDS011;42227;6.376;-10.782;2024-01-06T02:13:35;155.00;;;107.45;;
56321;SDS011;42227;6.376;-10.782;2024-01-06T02:16:04;159.20;;;109.72;;
56321;SDS011;42227;6.376;-10.782;2024-01-06T02:18:33;146.50;;;100.95;;
56321;SDS011;42227;6.376;-10.782;2024-01-06T02:21:02;145.75;;;104.57;;
56321;SDS011;42227;6.376;-10.782;2024-01-06T02:23:30;152.32;;;102.93;;
56321;SDS011;42227;6.376;-10.782;2024-01-06T02:26:02;139.30;;;93.60;;
56321;SDS011;42227;6.376;-10.782;2024-01-06T02:28:31;147.43;;;102.20;;
56321;SDS011;42227;6.376;-10.782;2024-01-06T02:30:59;163.02;;;100.10;;
56321;SDS011;42227;6.376;-10.782;2024-01-06T02:33:28;163.93;;;101.43;;
56321;SDS011;42227;6.376;-10.782;2024-01-06T02:35:56;147.43;;;103.97;;
56321;SDS011;42227;6.376;-10.782;2024-01-06T02:38:25;146.45;;;97.50;;
56321;SDS011;42227;6.376;-10.782;2024-01-06T02:40:53;142.65;;;106.60;;
56321;SDS011;42227;6.376;-10.782;2024-01-06T02:43:21;172.38;;;110.40;;
56321;SDS011;42227;6.376;-10.782;2024-01-06T02:45:50;142.15;;;100.97;;
56321;SDS011;42227;6.376;-10.782;2024-01-06T02:48:18;126.13;;;95.30;;
56321;SDS011;42227;6.376;-10.782;2024-01-06T02:50:47;160.73;;;98.32;;
56321;SDS011;42227;6.376;-10.782;2024-01-06T02:53:15;161.07;;;108.78;;
56321;SDS011;42227;6.376;-10.782;2024-01-06T02:55:44;146.85;;;104.95;;
56321;SDS011;42227;6.376;-10.782;2024-01-06T02:58:12;161.68;;;103.78;;
56321;SDS011;42227;6.376;-10.782;2024-01-06T03:00:41;139.70;;;91.88;;
56321;SDS011;42227;6.376;-10.782;2024-01-06T03:03:09;131.90;;;92.05;;
56321;SDS011;42227;6.376;-10.782;2024-01-06T03:05:38;129.00;;;84.30;;
56321;SDS011;42227;6.376;-10.782;2024-01-06T03:08:06;122.43;;;85.72;;
56321;SDS011;42227;6.376;-10.782;2024-01-06T03:10:35;127.72;;;84.28;;
56321;SDS011;42227;6.376;-10.782;2024-01-06T03:13:03;143.63;;;90.28;;
56321;SDS011;42227;6.376;-10.782;2024-01-06T03:15:31;146.98;;;92.32;;
56321;SDS011;42227;6.376;-10.782;2024-01-06T03:18:00;129.73;;;89.05;;
56321;SDS011;42227;6.376;-10.782;2024-01-06T03:20:28;127.93;;;83.47;;
56321;SDS011;42227;6.376;-10.782;2024-01-06T03:22:57;101.88;;;73.53;;
56321;SDS011;42227;6.376;-10.782;2024-01-06T03:25:25;100.10;;;72.38;;
56321;SDS011;42227;6.376;-10.782;2024-01-06T03:27:53;114.45;;;75.13;;
56321;SDS011;42227;6.376;-10.782;2024-01-06T03:30:22;111.65;;;81.32;;
56321;SDS011;42227;6.376;-10.782;2024-01-06T03:32:50;122.15;;;79.32;;
56321;SDS011;42227;6.376;-10.782;2024-01-06T03:35:19;117.15;;;77.32;;
56321;SDS011;42227;6.376;-10.782;2024-01-06T03:37:47;123.72;;;82.95;;
56321;SDS011;42227;6.376;-10.782;2024-01-06T03:40:16;112.47;;;78.30;;
56321;SDS011;42227;6.376;-10.782;2024-01-06T03:42:44;114.28;;;76.15;;
56321;SDS011;42227;6.376;-10.782;2024-01-06T03:45:12;103.63;;;75.50;;
56321;SDS011;42227;6.376;-10.782;2024-01-06T03:47:41;106.97;;;76.53;;
56321;SDS011;42227;6.376;-10.782;2024-01-06T03:50:09;114.43;;;75.78;;
56321;SDS011;42227;6.376;-10.782;2024-01-06T03:52:38;105.88;;;69.80;;
56321;SDS011;42227;6.376;-10.782;2024-01-06T03:55:07;109.25;;;69.18;;
56321;SDS011;42227;6.376;-10.782;2024-01-06T03:57:36;99.18;;;66.95;;
56321;SDS011;42227;6.376;-10.782;2024-01-06T04:00:04;117.57;;;74.28;;
56321;SDS011;42227;6.376;-10.782;2024-01-06T04:02:33;107.68;;;65.53;;
56321;SDS011;42227;6.376;-10.782;2024-01-06T04:05:03;101.15;;;55.90;;
56321;SDS011;42227;6.376;-10.782;2024-01-06T04:07:32;90.80;;;61.75;;
56321;SDS011;42227;6.376;-10.782;2024-01-06T04:10:00;81.75;;;53.60;;
56321;SDS011;42227;6.376;-10.782;2024-01-06T04:12:29;72.38;;;53.30;;
56321;SDS011;42227;6.376;-10.782;2024-01-06T04:14:57;88.20;;;52.20;;
56321;SDS011;42227;6.376;-10.782;2024-01-06T04:17:25;76.47;;;50.42;;
56321;SDS011;42227;6.376;-10.782;2024-01-06T04:19:54;79.25;;;52.63;;
56321;SDS011;42227;6.376;-10.782;2024-01-06T04:22:22;80.68;;;54.38;;
56321;SDS011;42227;6.376;-10.782;2024-01-06T04:24:51;104.03;;;69.47;;
56321;SDS011;42227;6.376;-10.782;2024-01-06T04:27:20;98.05;;;64.07;;
56321;SDS011;42227;6.376;-10.782;2024-01-06T04:29:48;88.90;;;61.80;;
56321;SDS011;42227;6.376;-10.782;2024-01-06T04:32:16;89.20;;;64.70;;
56321;SDS011;42227;6.376;-10.782;2024-01-06T04:34:45;104.07;;;66.63;;
56321;SDS011;42227;6.376;-10.782;2024-01-06T04:37:13;103.70;;;67.28;;
56321;SDS011;42227;6.376;-10.782;2024-01-06T04:39:42;94.75;;;60.42;;
56321;SDS011;42227;6.376;-10.782;2024-01-06T04:42:10;81.18;;;55.78;;
56321;SDS011;42227;6.376;-10.782;2024-01-06T04:44:38;81.88;;;55.40;;
56321;SDS011;42227;6.376;-10.782;2024-01-06T04:47:07;74.30;;;47.78;;
56321;SDS011;42227;6.376;-10.782;2024-01-06T04:49:35;69.90;;;46.80;;
56321;SDS011;42227;6.376;-10.782;2024-01-06T04:52:04;65.70;;;49.35;;
56321;SDS011;42227;6.376;-10.782;2024-01-06T04:54:32;73.00;;;48.33;;
56321;SDS011;42227;6.376;-10.782;2024-01-06T04:57:00;87.00;;;49.05;;
56321;SDS011;42227;6.376;-10.782;2024-01-06T04:59:29;71.75;;;48.85;;
56321;SDS011;42227;6.376;-10.782;2024-01-06T05:01:58;73.30;;;49.47;;
56321;SDS011;42227;6.376;-10.782;2024-01-06T05:04:27;62.42;;;48.45;;
56321;SDS011;42227;6.376;-10.782;2024-01-06T05:06:55;74.78;;;48.80;;
56321;SDS011;42227;6.376;-10.782;2024-01-06T05:09:24;70.15;;;45.63;;
56321;SDS011;42227;6.376;-10.782;2024-01-06T05:11:53;71.65;;;43.67;;
56321;SDS011;42227;6.376;-10.782;2024-01-06T05:14:21;71.18;;;42.17;;
56321;SDS011;42227;6.376;-10.782;2024-01-06T05:16:50;64.20;;;42.30;;
56321;SDS011;42227;6.376;-10.782;2024-01-06T05:19:18;75.25;;;48.90;;
56321;SDS011;42227;6.376;-10.782;2024-01-06T05:21:49;55.70;;;44.33;;
56321;SDS011;42227;6.376;-10.782;2024-01-06T05:24:24;63.65;;;47.30;;
56321;SDS011;42227;6.376;-10.782;2024-01-06T05:26:52;71.50;;;50.13;;
56321;SDS011;42227;6.376;-10.782;2024-01-06T05:29:21;80.15;;;50.95;;
56321;SDS011;42227;6.376;-10.782;2024-01-06T05:31:49;85.65;;;51.28;;
56321;SDS011;42227;6.376;-10.782;2024-01-06T05:34:20;85.40;;;53.42;;
56321;SDS011;42227;6.376;-10.782;2024-01-06T05:36:49;74.88;;;50.58;;
56321;SDS011;42227;6.376;-10.782;2024-01-06T05:39:17;76.85;;;54.72;;
56321;SDS011;42227;6.376;-10.782;2024-01-06T05:41:45;85.05;;;56.25;;
56321;SDS011;42227;6.376;-10.782;2024-01-06T05:44:14;82.72;;;54.97;;
56321;SDS011;42227;6.376;-10.782;2024-01-06T05:46:42;76.38;;;50.17;;
56321;SDS011;42227;6.376;-10.782;2024-01-06T05:49:11;71.90;;;50.55;;
56321;SDS011;42227;6.376;-10.782;2024-01-06T05:51:44;70.05;;;45.00;;
56321;SDS011;42227;6.376;-10.782;2024-01-06T05:54:13;76.57;;;42.92;;
56321;SDS011;42227;6.376;-10.782;2024-01-06T05:56:41;65.72;;;42.13;;
56321;SDS011;42227;6.376;-10.782;2024-01-06T05:59:11;88.32;;;52.20;;
56321;SDS011;42227;6.376;-10.782;2024-01-06T06:01:39;66.68;;;52.97;;
56321;SDS011;42227;6.376;-10.782;2024-01-06T06:04:08;73.88;;;50.05;;
56321;SDS011;42227;6.376;-10.782;2024-01-06T06:06:36;70.88;;;46.97;;
56321;SDS011;42227;6.376;-10.782;2024-01-06T06:09:04;68.22;;;43.30;;
56321;SDS011;42227;6.376;-10.782;2024-01-06T06:11:34;75.20;;;46.15;;
56321;SDS011;42227;6.376;-10.782;2024-01-06T06:14:03;81.07;;;47.55;;
56321;SDS011;42227;6.376;-10.782;2024-01-06T06:16:32;84.28;;;47.95;;
56321;SDS011;42227;6.376;-10.782;2024-01-06T06:19:00;61.00;;;42.10;;
56321;SDS011;42227;6.376;-10.782;2024-01-06T06:21:28;58.65;;;36.03;;
56321;SDS011;42227;6.376;-10.782;2024-01-06T06:23:57;55.88;;;35.63;;
56321;SDS011;42227;6.376;-10.782;2024-01-06T06:26:27;55.58;;;36.88;;
56321;SDS011;42227;6.376;-10.782;2024-01-06T06:28:55;50.78;;;33.58;;
56321;SDS011;42227;6.376;-10.782;2024-01-06T06:31:23;47.17;;;31.75;;
56321;SDS011;42227;6.376;-10.782;2024-01-06T06:33:52;42.88;;;32.33;;
56321;SDS011;42227;6.376;-10.782;2024-01-06T06:36:20;56.20;;;38.00;;
56321;SDS011;42227;6.376;-10.782;2024-01-06T06:38:49;58.90;;;34.65;;
56321;SDS011;42227;6.376;-10.782;2024-01-06T06:41:18;62.08;;;34.08;;
56321;SDS011;42227;6.376;-10.782;2024-01-06T06:43:48;57.97;;;35.10;;
56321;SDS011;42227;6.376;-10.782;2024-01-06T06:46:16;44.90;;;34.33;;
56321;SDS011;42227;6.376;-10.782;2024-01-06T06:48:45;58.15;;;36.33;;
56321;SDS011;42227;6.376;-10.782;2024-01-06T06:51:13;61.58;;;37.13;;
56321;SDS011;42227;6.376;-10.782;2024-01-06T06:53:42;90.72;;;41.22;;
56321;SDS011;42227;6.376;-10.782;2024-01-06T06:56:11;73.57;;;40.90;;
56321;SDS011;42227;6.376;-10.782;2024-01-06T06:58:40;87.07;;;48.42;;
56321;SDS011;42227;6.376;-10.782;2024-01-06T07:01:08;69.82;;;48.38;;
56321;SDS011;42227;6.376;-10.782;2024-01-06T07:03:39;73.97;;;44.30;;
56321;SDS011;42227;6.376;-10.782;2024-01-06T07:06:07;67.10;;;41.20;;
56321;SDS011;42227;6.376;-10.782;2024-01-06T07:08:39;64.82;;;44.08;;
56321;SDS011;42227;6.376;-10.782;2024-01-06T07:11:07;58.35;;;38.67;;
56321;SDS011;42227;6.376;-10.782;2024-01-06T07:13:36;78.45;;;41.90;;
56321;SDS011;42227;6.376;-10.782;2024-01-06T07:16:05;65.25;;;42.90;;
56321;SDS011;42227;6.376;-10.782;2024-01-06T07:18:44;69.95;;;39.78;;
56321;SDS011;42227;6.376;-10.782;2024-01-06T07:21:13;69.38;;;42.28;;
56321;SDS011;42227;6.376;-10.782;2024-01-06T07:23:42;70.35;;;44.72;;
56321;SDS011;42227;6.376;-10.782;2024-01-06T07:26:10;65.47;;;43.25;;
56321;SDS011;42227;6.376;-10.782;2024-01-06T07:28:38;56.17;;;39.45;;
56321;SDS011;42227;6.376;-10.782;2024-01-06T07:31:07;52.33;;;34.90;;
56321;SDS011;42227;6.376;-10.782;2024-01-06T07:33:35;50.47;;;30.60;;
56321;SDS011;42227;6.376;-10.782;2024-01-06T07:36:04;47.10;;;30.05;;
56321;SDS011;42227;6.376;-10.782;2024-01-06T07:38:33;32.67;;;24.45;;
56321;SDS011;42227;6.376;-10.782;2024-01-06T07:41:01;32.90;;;25.42;;
56321;SDS011;42227;6.376;-10.782;2024-01-06T07:43:30;46.88;;;29.23;;
56321;SDS011;42227;6.376;-10.782;2024-01-06T07:45:58;52.10;;;31.02;;
56321;SDS011;42227;6.376;-10.782;2024-01-06T07:48:27;58.83;;;28.30;;
56321;SDS011;42227;6.376;-10.782;2024-01-06T07:50:55;47.42;;;26.42;;
56321;SDS011;42227;6.376;-10.782;2024-01-06T07:53:24;43.13;;;26.30;;
56321;SDS011;42227;6.376;-10.782;2024-01-06T07:55:52;37.10;;;28.02;;
56321;SDS011;42227;6.376;-10.782;2024-01-06T07:58:20;37.33;;;27.35;;
56321;SDS011;42227;6.376;-10.782;2024-01-06T08:00:49;67.93;;;37.03;;
56321;SDS011;42227;6.376;-10.782;2024-01-06T08:03:17;49.40;;;35.25;;
56321;SDS011;42227;6.376;-10.782;2024-01-06T08:05:46;58.50;;;38.65;;
56321;SDS011;42227;6.376;-10.782;2024-01-06T08:08:15;52.40;;;39.08;;
56321;SDS011;42227;6.376;-10.782;2024-01-06T08:10:43;65.82;;;41.95;;
56321;SDS011;42227;6.376;-10.782;2024-01-06T08:13:11;71.90;;;46.00;;
56321;SDS011;42227;6.376;-10.782;2024-01-06T08:15:40;61.88;;;40.33;;
56321;SDS011;42227;6.376;-10.782;2024-01-06T08:18:08;56.03;;;35.38;;
56321;SDS011;42227;6.376;-10.782;2024-01-06T08:20:37;48.25;;;30.35;;
56321;SDS011;42227;6.376;-10.782;2024-01-06T08:23:05;60.45;;;29.23;;
56321;SDS011;42227;6.376;-10.782;2024-01-06T08:25:33;47.60;;;30.63;;
56321;SDS011;42227;6.376;-10.782;2024-01-06T08:28:02;40.15;;;29.25;;
56321;SDS011;42227;6.376;-10.782;2024-01-06T08:30:30;48.00;;;27.13;;
56321;SDS011;42227;6.376;-10.782;2024-01-06T08:32:59;37.67;;;25.42;;
56321;SDS011;42227;6.376;-10.782;2024-01-06T08:35:28;40.40;;;27.20;;
56321;SDS011;42227;6.376;-10.782;2024-01-06T08:37:56;51.15;;;29.48;;
56321;SDS011;42227;6.376;-10.782;2024-01-06T08:40:25;41.85;;;28.67;;
56321;SDS011;42227;6.376;-10.782;2024-01-06T08:42:53;39.30;;;25.77;;
56321;SDS011;42227;6.376;-10.782;2024-01-06T08:45:22;40.42;;;26.45;;
56321;SDS011;42227;6.376;-10.782;2024-01-06T08:47:50;38.00;;;24.20;;
56321;SDS011;42227;6.376;-10.782;2024-01-06T08:50:19;29.52;;;18.40;;
56321;SDS011;42227;6.376;-10.782;2024-01-06T08:52:47;31.55;;;16.08;;
56321;SDS011;42227;6.376;-10.782;2024-01-06T08:55:18;31.92;;;18.70;;
56321;SDS011;42227;6.376;-10.782;2024-01-06T08:57:47;27.83;;;17.45;;
56321;SDS011;42227;6.376;-10.782;2024-01-06T09:00:15;29.48;;;17.35;;
56321;SDS011;42227;6.376;-10.782;2024-01-06T09:02:44;28.63;;;14.20;;
56321;SDS011;42227;6.376;-10.782;2024-01-06T09:05:13;24.48;;;13.55;;
56321;SDS011;42227;6.376;-10.782;2024-01-06T09:07:41;20.73;;;13.32;;
56321;SDS011;42227;6.376;-10.782;2024-01-06T09:10:10;32.28;;;14.05;;
56321;SDS011;42227;6.376;-10.782;2024-01-06T09:12:38;23.75;;;13.50;;
56321;SDS011;42227;6.376;-10.782;2024-01-06T09:15:07;27.85;;;12.73;;
56321;SDS011;42227;6.376;-10.782;2024-01-06T09:17:35;16.00;;;11.68;;
56321;SDS011;42227;6.376;-10.782;2024-01-06T09:20:04;22.58;;;11.90;;
56321;SDS011;42227;6.376;-10.782;2024-01-06T09:22:33;28.40;;;14.07;;
56321;SDS011;42227;6.376;-10.782;2024-01-06T09:25:01;24.48;;;14.40;;
56321;SDS011;42227;6.376;-10.782;2024-01-06T09:27:30;20.42;;;9.95;;
56321;SDS011;42227;6.376;-10.782;2024-01-06T09:29:58;22.02;;;10.57;;
56321;SDS011;42227;6.376;-10.782;2024-01-06T09:32:27;27.60;;;12.77;;
56321;SDS011;42227;6.376;-10.782;2024-01-06T09:34:55;20.50;;;11.00;;
56321;SDS011;42227;6.376;-10.782;2024-01-06T09:37:23;38.03;;;11.48;;
56321;SDS011;42227;6.376;-10.782;2024-01-06T09:39:52;20.60;;;10.05;;
56321;SDS011;42227;6.376;-10.782;2024-01-06T09:42:20;23.02;;;10.23;;
56321;SDS011;42227;6.376;-10.782;2024-01-06T09:44:52;29.30;;;12.50;;
56321;SDS011;42227;6.376;-10.782;2024-01-06T09:47:22;21.23;;;12.20;;
56321;SDS011;42227;6.376;-10.782;2024-01-06T09:49:50;31.00;;;15.07;;
56321;SDS011;42227;6.376;-10.782;2024-01-06T09:52:23;38.85;;;15.30;;
56321;SDS011;42227;6.376;-10.782;2024-01-06T09:54:53;20.80;;;13.90;;
56321;SDS011;42227;6.376;-10.782;2024-01-06T09:57:23;24.35;;;11.68;;
56321;SDS011;42227;6.376;-10.782;2024-01-06T09:59:51;31.85;;;12.65;;
56321;SDS011;42227;6.376;-10.782;2024-01-06T10:02:21;24.75;;;9.65;;
56321;SDS011;42227;6.376;-10.782;2024-01-06T10:04:49;18.75;;;9.52;;
56321;SDS011;42227;6.376;-10.782;2024-01-06T10:07:18;25.13;;;11.30;;
56321;SDS011;42227;6.376;-10.782;2024-01-06T10:09:46;38.28;;;15.18;;
56321;SDS011;42227;6.376;-10.782;2024-01-06T10:12:15;28.77;;;11.05;;
56321;SDS011;42227;6.376;-10.782;2024-01-06T10:14:43;29.45;;;11.93;;
56321;SDS011;42227;6.376;-10.782;2024-01-06T10:17:12;32.35;;;12.45;;
56321;SDS011;42227;6.376;-10.782;2024-01-06T10:19:40;23.35;;;11.48;;
56321;SDS011;42227;6.376;-10.782;2024-01-06T10:22:12;21.77;;;11.10;;
56321;SDS011;42227;6.376;-10.782;2024-01-06T10:24:40;47.05;;;15.80;;
56321;SDS011;42227;6.376;-10.782;2024-01-06T10:27:09;16.15;;;10.40;;
56321;SDS011;42227;6.376;-10.782;2024-01-06T10:29:37;18.60;;;9.77;;
56321;SDS011;42227;6.376;-10.782;2024-01-06T10:32:06;16.58;;;10.85;;
56321;SDS011;42227;6.376;-10.782;2024-01-06T10:34:34;24.20;;;10.90;;
56321;SDS011;42227;6.376;-10.782;2024-01-06T10:37:04;16.85;;;10.45;;
56321;SDS011;42227;6.376;-10.782;2024-01-06T10:39:33;21.65;;;11.85;;
56321;SDS011;42227;6.376;-10.782;2024-01-06T10:42:04;24.63;;;9.35;;
56321;SDS011;42227;6.376;-10.782;2024-01-06T10:44:35;29.80;;;11.90;;
56321;SDS011;42227;6.376;-10.782;2024-01-06T10:47:06;22.17;;;10.93;;
56321;SDS011;42227;6.376;-10.782;2024-01-06T10:49:35;27.70;;;10.73;;
56321;SDS011;42227;6.376;-10.782;2024-01-06T10:52:04;21.00;;;9.93;;
56321;SDS011;42227;6.376;-10.782;2024-01-06T10:54:33;21.25;;;10.30;;
56321;SDS011;42227;6.376;-10.782;2024-01-06T10:57:03;19.02;;;8.68;;
56321;SDS011;42227;6.376;-10.782;2024-01-06T10:59:33;29.33;;;14.52;;
56321;SDS011;42227;6.376;-10.782;2024-01-06T11:02:03;24.02;;;13.73;;
56321;SDS011;42227;6.376;-10.782;2024-01-06T11:04:32;30.30;;;13.30;;
56321;SDS011;42227;6.376;-10.782;2024-01-06T11:07:01;29.77;;;14.02;;
56321;SDS011;42227;6.376;-10.782;2024-01-06T11:09:31;29.25;;;14.20;;
56321;SDS011;42227;6.376;-10.782;2024-01-06T11:12:02;23.30;;;11.30;;
56321;SDS011;42227;6.376;-10.782;2024-01-06T11:14:30;35.50;;;13.55;;
56321;SDS011;42227;6.376;-10.782;2024-01-06T11:17:05;56.28;;;17.38;;
56321;SDS011;42227;6.376;-10.782;2024-01-06T11:24:55;42.43;;;15.83;;
56321;SDS011;42227;6.376;-10.782;2024-01-06T11:27:25;46.00;;;18.00;;
56321;SDS011;42227;6.376;-10.782;2024-01-06T11:29:55;29.15;;;13.82;;
56321;SDS011;42227;6.376;-10.782;2024-01-06T11:32:39;23.13;;;11.43;;
56321;SDS011;42227;6.376;-10.782;2024-01-06T11:35:11;27.92;;;15.15;;
56321;SDS011;42227;6.376;-10.782;2024-01-06T11:40:10;27.48;;;13.68;;
56321;SDS011;42227;6.376;-10.782;2024-01-06T11:42:46;24.60;;;13.48;;
56321;SDS011;42227;6.376;-10.782;2024-01-06T11:45:16;37.78;;;14.07;;
56321;SDS011;42227;6.376;-10.782;2024-01-06T11:47:47;23.30;;;12.10;;
56321;SDS011;42227;6.376;-10.782;2024-01-06T11:50:16;31.45;;;15.60;;
56321;SDS011;42227;6.376;-10.782;2024-01-06T11:52:45;27.95;;;14.60;;
56321;SDS011;42227;6.376;-10.782;2024-01-06T11:55:13;24.35;;;12.38;;
56321;SDS011;42227;6.376;-10.782;2024-01-06T11:57:45;30.85;;;13.10;;
56321;SDS011;42227;6.376;-10.782;2024-01-06T12:00:13;32.08;;;12.75;;
56321;SDS011;42227;6.376;-10.782;2024-01-06T12:02:42;30.92;;;12.65;;
56321;SDS011;42227;6.376;-10.782;2024-01-06T12:05:17;25.30;;;10.80;;
56321;SDS011;42227;6.376;-10.782;2024-01-06T12:15:28;48.15;;;11.75;;
56321;SDS011;42227;6.376;-10.782;2024-01-06T12:18:03;31.35;;;11.95;;
56321;SDS011;42227;6.376;-10.782;2024-01-06T12:20:33;34.50;;;13.75;;
56321;SDS011;42227;6.376;-10.782;2024-01-06T12:23:01;33.72;;;16.88;;
56321;SDS011;42227;6.376;-10.782;2024-01-06T12:25:30;32.83;;;18.75;;
56321;SDS011;42227;6.376;-10.782;2024-01-06T12:28:00;20.05;;;15.25;;
56321;SDS011;42227;6.376;-10.782;2024-01-06T12:30:29;30.48;;;11.70;;
56321;SDS011;42227;6.376;-10.782;2024-01-06T12:32:57;24.15;;;12.35;;
56321;SDS011;42227;6.376;-10.782;2024-01-06T12:35:29;28.92;;;11.10;;
56321;SDS011;42227;6.376;-10.782;2024-01-06T12:37:57;26.92;;;14.43;;
56321;SDS011;42227;6.376;-10.782;2024-01-06T12:40:27;31.33;;;13.88;;
56321;SDS011;42227;6.376;-10.782;2024-01-06T12:42:56;19.55;;;12.68;;
56321;SDS011;42227;6.376;-10.782;2024-01-06T12:45:25;25.55;;;11.27;;
56321;SDS011;42227;6.376;-10.782;2024-01-06T12:47:53;17.80;;;10.25;;
56321;SDS011;42227;6.376;-10.782;2024-01-06T12:50:22;23.95;;;11.32;;
56321;SDS011;42227;6.376;-10.782;2024-01-06T12:52:50;36.05;;;13.00;;
56321;SDS011;42227;6.376;-10.782;2024-01-06T12:55:19;34.47;;;13.48;;
56321;SDS011;42227;6.376;-10.782;2024-01-06T12:57:47;34.17;;;14.55;;
56321;SDS011;42227;6.376;-10.782;2024-01-06T13:00:16;21.25;;;12.00;;
56321;SDS011;42227;6.376;-10.782;2024-01-06T13:02:44;19.65;;;11.20;;
56321;SDS011;42227;6.376;-10.782;2024-01-06T13:05:13;25.42;;;12.77;;
56321;SDS011;42227;6.376;-10.782;2024-01-06T13:07:42;21.95;;;10.40;;
56321;SDS011;42227;6.376;-10.782;2024-01-06T13:10:10;31.35;;;14.13;;
56321;SDS011;42227;6.376;-10.782;2024-01-06T13:12:39;19.33;;;12.38;;
56321;SDS011;42227;6.376;-10.782;2024-01-06T13:15:07;32.08;;;13.43;;
56321;SDS011;42227;6.376;-10.782;2024-01-06T13:17:36;22.70;;;12.68;;
56321;SDS011;42227;6.376;-10.782;2024-01-06T13:20:05;34.25;;;13.73;;
56321;SDS011;42227;6.376;-10.782;2024-01-06T13:22:34;30.27;;;12.85;;
56321;SDS011;42227;6.376;-10.782;2024-01-06T13:25:03;17.45;;;9.82;;
56321;SDS011;42227;6.376;-10.782;2024-01-06T13:27:32;25.13;;;14.32;;
56321;SDS011;42227;6.376;-10.782;2024-01-06T13:30:00;21.50;;;13.73;;
56321;SDS011;42227;6.376;-10.782;2024-01-06T13:32:28;28.50;;;13.52;;
56321;SDS011;42227;6.376;-10.782;2024-01-06T13:34:57;24.15;;;14.13;;
56321;SDS011;42227;6.376;-10.782;2024-01-06T13:37:25;56.03;;;16.85;;
56321;SDS011;42227;6.376;-10.782;2024-01-06T13:39:54;34.58;;;17.35;;
56321;SDS011;42227;6.376;-10.782;2024-01-06T13:42:22;40.38;;;15.32;;
56321;SDS011;42227;6.376;-10.782;2024-01-06T13:44:51;28.77;;;14.15;;
56321;SDS011;42227;6.376;-10.782;2024-01-06T13:47:19;33.03;;;14.93;;
56321;SDS011;42227;6.376;-10.782;2024-01-06T13:49:48;30.13;;;12.60;;
56321;SDS011;42227;6.376;-10.782;2024-01-06T13:52:16;32.85;;;15.82;;
56321;SDS011;42227;6.376;-10.782;2024-01-06T13:54:45;30.95;;;14.40;;
56321;SDS011;42227;6.376;-10.782;2024-01-06T13:57:13;31.00;;;14.95;;
56321;SDS011;42227;6.376;-10.782;2024-01-06T13:59:42;26.98;;;16.20;;
56321;SDS011;42227;6.376;-10.782;2024-01-06T14:02:10;35.25;;;13.25;;
56321;SDS011;42227;6.376;-10.782;2024-01-06T14:04:39;30.70;;;14.80;;
56321;SDS011;42227;6.376;-10.782;2024-01-06T14:07:07;38.28;;;14.27;;
56321;SDS011;42227;6.376;-10.782;2024-01-06T14:09:36;28.95;;;12.07;;
56321;SDS011;42227;6.376;-10.782;2024-01-06T14:12:05;26.05;;;13.18;;
56321;SDS011;42227;6.376;-10.782;2024-01-06T14:14:33;26.65;;;12.73;;
56321;SDS011;42227;6.376;-10.782;2024-01-06T14:17:02;24.50;;;14.60;;
56321;SDS011;42227;6.376;-10.782;2024-01-06T14:19:30;32.63;;;12.80;;
56321;SDS011;42227;6.376;-10.782;2024-01-06T14:21:59;37.63;;;11.07;;
56321;SDS011;42227;6.376;-10.782;2024-01-06T14:24:27;36.05;;;15.27;;
56321;SDS011;42227;6.376;-10.782;2024-01-06T14:26:56;32.72;;;11.63;;
56321;SDS011;42227;6.376;-10.782;2024-01-06T14:29:25;24.50;;;12.18;;